首页
METAR-TAF:

METAR-TAF

机场 :

Iowa County Airport

Mineral Point, 威斯康辛州, 美国

纬度: 42-53-07N, 经度: 090-13-55W, 海拔: 359米

当前天气观测

该预报发布于13分钟前的20:55 UTC
风速9节,风向西转西北
温度 -3°C
湿度 74%
气压 1009 hPa
能見度: 16.1公里
阴天层高于1800英尺

METAR: KMRJ 142055Z AUTO 29009KT 10SM OVC018 M03/M07 A2979 RMK AO2

时间: 15:08 (21:08 UTC)


TAF: 丢失

超过4000个机场的气象观测和天气预报(METAR&TAF报告)。

可查询的气象台以黄色和红色小点在地图上表示。

将鼠标移到小点上方,可查看气象台名称。

然后点击查看天气观测和预报。

如需切换地图:点击带黑十字的绿色按钮放大地图;点击带横线的绿色按钮缩小地图;或者点击绿色箭头查看邻近地区的地图。


METAR-TAF: